createdAt,value
2022-09-17T00:00:53.540Z,11.80
2022-09-17T00:01:53.620Z,11.50
2022-09-17T00:02:53.607Z,11.40
2022-09-17T00:03:53.477Z,8.80
2022-09-17T00:04:53.473Z,10.20
2022-09-17T00:05:53.459Z,13.70
2022-09-17T00:06:53.487Z,11.10
2022-09-17T00:07:53.437Z,11.90
2022-09-17T00:08:53.431Z,14.60
2022-09-17T00:09:53.411Z,14.60
2022-09-17T00:10:53.437Z,11.90
2022-09-17T00:11:53.391Z,11.90
2022-09-17T00:12:53.380Z,13.00
2022-09-17T00:13:53.436Z,13.40
2022-09-17T00:14:53.361Z,11.50
2022-09-17T00:15:53.366Z,11.40
2022-09-17T00:16:53.359Z,12.50
2022-09-17T00:17:53.338Z,14.20
2022-09-17T00:18:53.329Z,15.20
2022-09-17T00:19:53.331Z,9.70
2022-09-17T00:20:53.297Z,14.10
2022-09-17T00:21:53.283Z,12.40
2022-09-17T00:22:53.316Z,14.50
2022-09-17T00:23:57.235Z,10.60
2022-09-17T00:24:53.259Z,11.80
2022-09-17T00:25:53.239Z,11.70
2022-09-17T00:26:53.239Z,10.70
2022-09-17T00:27:53.219Z,14.40
2022-09-17T00:28:53.289Z,12.00
2022-09-17T00:29:53.208Z,11.20
2022-09-17T00:30:53.334Z,9.90
2022-09-17T00:31:53.176Z,11.70
2022-09-17T00:32:53.204Z,13.10
2022-09-17T00:33:53.179Z,11.20
2022-09-17T00:34:53.178Z,11.20
2022-09-17T00:35:53.138Z,16.50
2022-09-17T00:36:53.128Z,11.40
2022-09-17T00:37:53.137Z,12.80
2022-09-17T00:38:53.111Z,8.70
2022-09-17T00:39:53.140Z,11.90
2022-09-17T00:40:53.098Z,13.00
2022-09-17T00:41:53.104Z,10.40
2022-09-17T00:42:53.099Z,14.00
2022-09-17T00:43:53.053Z,18.70
2022-09-17T00:44:53.103Z,12.20
2022-09-17T00:45:53.027Z,13.90
2022-09-17T00:46:53.092Z,15.60
2022-09-17T00:47:52.999Z,14.70
2022-09-17T00:48:52.997Z,12.40
2022-09-17T00:49:52.979Z,10.00
2022-09-17T00:50:53.019Z,11.40
2022-09-17T00:51:55.976Z,12.90
2022-09-17T00:52:53.960Z,11.30
2022-09-17T00:53:52.938Z,11.50
2022-09-17T00:54:52.937Z,11.30
2022-09-17T00:55:52.947Z,12.30
2022-09-17T00:56:52.907Z,12.90
2022-09-17T00:57:52.897Z,16.70
2022-09-17T00:58:52.917Z,11.30
2022-09-17T00:59:52.877Z,13.10
2022-09-17T01:00:52.937Z,11.30
2022-09-17T01:01:52.973Z,11.70
2022-09-17T01:02:52.847Z,13.90
2022-09-17T01:03:52.833Z,15.50
2022-09-17T01:04:52.855Z,15.50
2022-09-17T01:05:52.838Z,14.40
2022-09-17T01:06:52.807Z,13.80
2022-09-17T01:07:52.793Z,12.60
2022-09-17T01:08:52.777Z,14.60
2022-09-17T01:09:52.766Z,15.90
2022-09-17T01:10:52.796Z,11.30
2022-09-17T01:11:52.746Z,12.60
2022-09-17T01:12:52.737Z,11.70
2022-09-17T01:13:52.736Z,13.20
2022-09-17T01:14:52.717Z,13.60
2022-09-17T01:15:52.763Z,11.80
2022-09-17T01:16:52.696Z,13.60
2022-09-17T01:17:52.685Z,13.70
2022-09-17T01:18:52.676Z,14.20
2022-09-17T01:19:52.666Z,14.70
2022-09-17T01:20:52.664Z,12.40
2022-09-17T01:21:52.715Z,14.20
2022-09-17T01:22:52.656Z,12.70
2022-09-17T01:23:52.615Z,12.80
2022-09-17T01:24:52.615Z,10.50
2022-09-17T01:25:52.605Z,13.30
2022-09-17T01:26:52.621Z,14.20
2022-09-17T01:27:52.613Z,13.50
2022-09-17T01:28:52.585Z,10.50
2022-09-17T01:29:52.555Z,12.30
2022-09-17T01:30:52.553Z,15.90
2022-09-17T01:31:52.565Z,15.40
2022-09-17T01:32:52.556Z,10.60
2022-09-17T01:33:52.514Z,11.50
2022-09-17T01:34:52.508Z,12.80
2022-09-17T01:35:52.484Z,12.40
2022-09-17T01:36:52.490Z,15.70
2022-09-17T01:37:52.505Z,12.00
2022-09-17T01:38:52.465Z,13.90
2022-09-17T01:39:52.534Z,15.30
2022-09-17T01:40:52.467Z,13.50
2022-09-17T01:41:52.435Z,18.90
2022-09-17T01:42:52.436Z,13.40
2022-09-17T01:43:52.442Z,15.40
2022-09-17T01:44:52.413Z,14.00
2022-09-17T01:45:52.424Z,13.00
2022-09-17T01:46:52.456Z,10.10
2022-09-17T01:47:52.361Z,15.50
2022-09-17T01:48:52.386Z,10.60
2022-09-17T01:49:52.334Z,12.30
2022-09-17T01:50:52.333Z,11.00
2022-09-17T01:51:52.422Z,18.30
2022-09-17T01:52:52.323Z,11.70
2022-09-17T01:53:52.381Z,12.10
2022-09-17T01:54:52.314Z,15.90
2022-09-17T01:55:52.283Z,13.50
2022-09-17T01:56:52.273Z,14.20
2022-09-17T01:57:52.254Z,10.30
2022-09-17T01:58:52.243Z,11.80
2022-09-17T01:59:52.253Z,16.90
2022-09-17T02:00:52.293Z,20.50
2022-09-17T02:01:52.296Z,16.00
2022-09-17T02:02:52.203Z,19.50
2022-09-17T02:03:52.185Z,17.50
2022-09-17T02:04:52.205Z,13.60
2022-09-17T02:05:52.163Z,18.70
2022-09-17T02:06:52.184Z,13.40
2022-09-17T02:07:52.144Z,14.80
2022-09-17T02:08:52.143Z,13.80
2022-09-17T02:09:52.143Z,15.60
2022-09-17T02:10:52.114Z,13.10
2022-09-17T02:11:52.102Z,13.70
2022-09-17T02:12:52.102Z,15.90
2022-09-17T02:13:52.082Z,21.60
2022-09-17T02:14:52.120Z,13.60
2022-09-17T02:15:52.111Z,12.50
2022-09-17T02:16:52.052Z,13.60
2022-09-17T02:17:52.043Z,14.90
2022-09-17T02:18:52.043Z,15.40
2022-09-17T02:19:52.014Z,15.70
2022-09-17T02:20:52.042Z,16.20
2022-09-17T02:21:51.992Z,14.00
2022-09-17T02:22:51.993Z,13.10
2022-09-17T02:23:51.972Z,11.10
2022-09-17T02:24:51.970Z,11.20
2022-09-17T02:25:51.952Z,12.60
2022-09-17T02:26:51.975Z,16.00
2022-09-17T02:27:51.969Z,15.80
2022-09-17T02:28:51.922Z,17.60
2022-09-17T02:29:51.914Z,15.10
2022-09-17T02:30:51.903Z,13.80
2022-09-17T02:31:51.983Z,14.70
2022-09-17T02:32:51.923Z,16.40
2022-09-17T02:33:51.924Z,14.30
2022-09-17T02:34:51.862Z,14.80
2022-09-17T02:35:51.857Z,12.10
2022-09-17T02:36:51.841Z,17.00
2022-09-17T02:37:51.852Z,13.70
2022-09-17T02:38:51.827Z,14.60
2022-09-17T02:39:51.869Z,12.90
2022-09-17T02:40:51.791Z,13.70
2022-09-17T02:41:51.790Z,16.40
2022-09-17T02:42:51.778Z,11.60
2022-09-17T02:43:52.030Z,13.20
2022-09-17T02:44:51.810Z,11.90
2022-09-17T02:45:51.770Z,13.70
2022-09-17T02:46:51.765Z,14.40
2022-09-17T02:47:51.741Z,11.80
2022-09-17T02:48:51.720Z,12.80
2022-09-17T02:49:51.721Z,14.80
2022-09-17T02:50:51.720Z,14.70
2022-09-17T02:51:51.672Z,13.80
2022-09-17T02:52:51.698Z,15.10
2022-09-17T02:53:51.652Z,17.10
2022-09-17T02:54:51.651Z,16.50
2022-09-17T02:55:51.642Z,15.70
2022-09-17T02:56:51.754Z,11.40
2022-09-17T02:57:51.610Z,15.60
2022-09-17T02:58:51.611Z,13.90
2022-09-17T02:59:51.630Z,14.00
2022-09-17T03:00:51.657Z,12.40
2022-09-17T03:01:51.605Z,15.50
2022-09-17T03:02:51.600Z,11.30
2022-09-17T03:03:51.549Z,13.90
2022-09-17T03:04:51.554Z,16.10
2022-09-17T03:05:51.527Z,14.20
2022-09-17T03:06:51.511Z,12.90
2022-09-17T03:07:51.523Z,12.40
2022-09-17T03:08:51.500Z,14.10
2022-09-17T03:09:51.480Z,12.80
2022-09-17T03:10:51.504Z,14.00
2022-09-17T03:11:51.451Z,15.20
2022-09-17T03:12:51.450Z,15.60
2022-09-17T03:13:51.429Z,13.80
2022-09-17T03:14:51.429Z,10.90
2022-09-17T03:15:51.653Z,14.50
2022-09-17T03:16:51.410Z,13.80
2022-09-17T03:17:53.481Z,11.10
2022-09-17T03:18:51.389Z,10.40
2022-09-17T03:19:51.390Z,14.30
2022-09-17T03:20:51.361Z,11.60
2022-09-17T03:21:51.398Z,12.50
2022-09-17T03:22:51.359Z,14.50
2022-09-17T03:23:51.350Z,11.80
2022-09-17T03:24:51.322Z,10.90
2022-09-17T03:25:51.312Z,10.60
2022-09-17T03:26:51.339Z,10.80
2022-09-17T03:27:51.290Z,11.40
2022-09-17T03:28:51.280Z,13.30
2022-09-17T03:29:51.268Z,13.40
2022-09-17T03:30:51.366Z,20.00
2022-09-17T03:31:51.291Z,14.70
2022-09-17T03:32:51.239Z,14.40
2022-09-17T03:33:51.246Z,12.90
2022-09-17T03:34:51.218Z,14.50
2022-09-17T03:35:51.214Z,11.20
2022-09-17T03:36:51.223Z,11.20
2022-09-17T03:37:51.188Z,12.00
2022-09-17T03:38:51.178Z,14.10
2022-09-17T03:39:51.245Z,12.50
2022-09-17T03:40:51.149Z,13.30
2022-09-17T03:41:51.138Z,14.00
2022-09-17T03:42:51.138Z,13.50
2022-09-17T03:43:51.119Z,13.60
2022-09-17T03:44:51.116Z,13.30
2022-09-17T03:45:51.138Z,12.00
2022-09-17T03:46:51.260Z,15.90
2022-09-17T03:47:51.078Z,13.10
2022-09-17T03:48:51.075Z,11.70
2022-09-17T03:49:51.069Z,17.80
2022-09-17T03:50:51.055Z,18.10
2022-09-17T03:51:51.057Z,12.20
2022-09-17T03:52:51.057Z,13.60
2022-09-17T03:53:51.038Z,10.90
2022-09-17T03:54:51.008Z,16.40
2022-09-17T03:55:50.988Z,13.20
2022-09-17T03:56:51.077Z,15.80
2022-09-17T03:57:50.968Z,13.80
2022-09-17T03:58:50.979Z,14.20
2022-09-17T03:59:50.954Z,15.60
2022-09-17T04:00:50.953Z,13.90
2022-09-17T04:01:51.061Z,14.40
2022-09-17T04:02:51.000Z,12.00
2022-09-17T04:03:50.897Z,13.60
2022-09-17T04:04:50.915Z,13.70
2022-09-17T04:05:50.888Z,17.80
2022-09-17T04:06:50.878Z,12.30
2022-09-17T04:07:50.964Z,11.70
2022-09-17T04:08:50.857Z,16.60
2022-09-17T04:09:50.836Z,11.50
2022-09-17T04:23:43.982Z,12.50
2022-09-17T04:24:51.416Z,15.10
2022-09-17T04:25:43.895Z,16.00
2022-09-17T04:26:43.927Z,17.90
2022-09-17T04:27:43.869Z,14.30
2022-09-17T04:28:43.858Z,10.70
2022-09-17T04:29:43.845Z,12.80
2022-09-17T04:30:43.835Z,11.70
2022-09-17T04:31:43.844Z,12.70
2022-09-17T04:32:43.835Z,12.80
2022-09-17T04:33:43.805Z,13.30
2022-09-17T04:34:43.796Z,12.90
2022-09-17T04:35:43.805Z,14.60
2022-09-17T04:36:43.814Z,14.00
2022-09-17T04:37:43.825Z,10.00
2022-09-17T04:38:43.782Z,9.50
2022-09-17T04:39:43.757Z,12.10
2022-09-17T04:40:43.789Z,11.50
2022-09-17T04:41:43.719Z,13.20
2022-09-17T04:42:43.735Z,12.90
2022-09-17T04:43:43.695Z,11.40
2022-09-17T04:44:43.692Z,12.50
2022-09-17T04:45:43.717Z,11.20
2022-09-17T04:46:43.709Z,9.20
2022-09-17T04:47:43.654Z,10.50
2022-09-17T04:48:43.694Z,12.30
2022-09-17T04:49:43.634Z,12.50
2022-09-17T04:50:43.624Z,9.50
2022-09-17T04:51:43.613Z,16.20
2022-09-17T04:52:43.607Z,11.20
2022-09-17T04:53:43.584Z,9.10
2022-09-17T04:54:43.614Z,13.20
2022-09-17T04:55:43.563Z,13.50
2022-09-17T04:56:43.564Z,10.60
2022-09-17T04:57:43.593Z,9.50
2022-09-17T04:58:43.533Z,14.00
2022-09-17T04:59:43.523Z,11.90
2022-09-17T05:00:43.588Z,9.00
2022-09-17T05:01:43.554Z,13.10
2022-09-17T05:02:43.493Z,12.30
2022-09-17T05:03:43.506Z,10.70
2022-09-17T05:04:43.492Z,10.00
2022-09-17T05:05:43.510Z,12.10
2022-09-17T05:06:43.452Z,12.10
2022-09-17T05:07:43.481Z,12.60
2022-09-17T05:08:43.443Z,10.80
2022-09-17T05:09:43.413Z,10.60
2022-09-17T05:10:43.443Z,11.90
2022-09-17T05:11:43.393Z,9.30
2022-09-17T05:12:43.385Z,9.90
2022-09-17T05:13:43.373Z,8.90
2022-09-17T05:14:43.373Z,8.50
2022-09-17T05:15:43.403Z,7.00
2022-09-17T05:16:43.396Z,9.20
2022-09-17T05:17:43.348Z,13.10
2022-09-17T05:18:43.330Z,8.60
2022-09-17T05:19:43.312Z,8.80
2022-09-17T05:20:43.304Z,8.70
2022-09-17T05:21:43.285Z,9.10
2022-09-17T05:22:43.381Z,10.30
2022-09-17T05:23:43.266Z,10.30
2022-09-17T05:24:43.262Z,10.60
2022-09-17T05:25:43.283Z,11.50
2022-09-17T05:26:43.243Z,11.60
2022-09-17T05:27:43.253Z,12.90
2022-09-17T05:28:43.220Z,9.50
2022-09-17T05:29:43.233Z,8.30
2022-09-17T05:30:43.192Z,7.90
2022-09-17T05:31:43.261Z,9.50
2022-09-17T05:32:43.179Z,8.20
2022-09-17T05:33:43.200Z,10.70
2022-09-17T05:34:43.160Z,10.30
2022-09-17T05:35:43.171Z,6.80
2022-09-17T05:36:43.161Z,6.80
2022-09-17T05:37:43.119Z,7.40
2022-09-17T05:38:43.112Z,7.40
2022-09-17T05:39:43.103Z,7.90
2022-09-17T05:40:43.102Z,9.50
2022-09-17T05:41:43.111Z,9.50
2022-09-17T05:42:43.073Z,10.20
2022-09-17T05:43:43.082Z,12.60
2022-09-17T05:44:43.051Z,7.30
2022-09-17T05:45:43.032Z,9.20
2022-09-17T05:46:43.070Z,7.10
2022-09-17T05:47:43.041Z,8.20
2022-09-17T05:48:43.011Z,10.10
2022-09-17T05:49:42.991Z,13.40
2022-09-17T05:50:42.992Z,9.80
2022-09-17T05:51:43.037Z,10.40
2022-09-17T05:52:42.982Z,8.80
2022-09-17T05:53:42.941Z,10.00
2022-09-17T05:54:42.940Z,8.20
2022-09-17T05:55:42.950Z,16.40
2022-09-17T05:56:42.919Z,7.80
2022-09-17T05:57:42.931Z,9.00
2022-09-17T05:58:42.976Z,12.20
2022-09-17T05:59:42.889Z,10.30
2022-09-17T06:00:42.870Z,10.40
2022-09-17T06:01:42.913Z,9.20
2022-09-17T06:02:42.903Z,7.90
2022-09-17T06:03:42.844Z,6.50
2022-09-17T06:04:42.871Z,10.70
2022-09-17T06:05:42.832Z,8.00
2022-09-17T06:06:42.810Z,9.80
2022-09-17T06:07:42.800Z,7.20
2022-09-17T06:08:42.789Z,7.10
2022-09-17T06:09:42.811Z,9.40
2022-09-17T06:10:42.760Z,7.90
2022-09-17T06:11:42.749Z,9.40
2022-09-17T06:12:42.747Z,7.30
2022-09-17T06:13:42.740Z,6.50
2022-09-17T06:14:42.739Z,10.60
2022-09-17T06:15:42.737Z,9.40
2022-09-17T06:16:42.725Z,7.10
2022-09-17T06:17:42.690Z,12.70
2022-09-17T06:18:42.749Z,39.40
2022-09-17T06:19:42.669Z,6.20
2022-09-17T06:20:42.660Z,9.40
2022-09-17T06:21:42.646Z,8.40
2022-09-17T06:22:42.639Z,9.90
2022-09-17T06:23:42.640Z,8.20
2022-09-17T06:24:42.660Z,7.70
2022-09-17T06:25:42.608Z,8.20
2022-09-17T06:26:42.629Z,9.30
2022-09-17T06:27:42.580Z,7.50
2022-09-17T06:28:43.328Z,6.90
2022-09-17T06:29:42.589Z,9.90
2022-09-17T06:30:42.548Z,8.70
2022-09-17T06:31:42.588Z,9.70
2022-09-17T06:32:42.537Z,12.10
2022-09-17T06:33:42.518Z,6.80
2022-09-17T06:34:42.509Z,10.10
2022-09-17T06:35:42.632Z,8.60
2022-09-17T06:36:42.505Z,14.00
2022-09-17T06:37:42.467Z,7.60
2022-09-17T06:38:42.488Z,5.40
2022-09-17T06:39:42.486Z,11.30
2022-09-17T06:40:42.622Z,10.30
2022-09-17T06:41:42.478Z,10.80
2022-09-17T06:42:42.499Z,9.50
2022-09-17T06:43:42.408Z,12.70
2022-09-17T06:44:42.397Z,9.60
2022-09-17T06:45:42.387Z,9.70
2022-09-17T06:46:42.412Z,9.70
2022-09-17T06:47:42.397Z,10.60
2022-09-17T06:48:42.367Z,11.70
2022-09-17T06:49:42.347Z,11.10
2022-09-17T06:50:42.983Z,9.50
2022-09-17T06:51:42.327Z,10.00
2022-09-17T06:52:42.359Z,7.70
2022-09-17T06:53:42.308Z,7.80
2022-09-17T06:54:42.307Z,11.90
2022-09-17T06:55:42.388Z,9.80
2022-09-17T06:56:42.294Z,9.00
2022-09-17T06:57:42.259Z,7.80
2022-09-17T06:58:42.436Z,8.00
2022-09-17T06:59:42.237Z,9.80
2022-09-17T07:00:42.247Z,8.30
2022-09-17T07:01:42.275Z,7.70
2022-09-17T07:02:42.208Z,9.40
2022-09-17T07:03:42.227Z,7.80
2022-09-17T07:04:42.187Z,9.10
2022-09-17T07:05:42.177Z,8.60
2022-09-17T07:06:42.214Z,7.70
2022-09-17T07:07:42.217Z,8.70
2022-09-17T07:08:42.194Z,7.80
2022-09-17T07:09:42.174Z,8.30
2022-09-17T07:10:42.128Z,6.50
2022-09-17T07:11:42.117Z,7.20
2022-09-17T07:12:45.471Z,7.40
2022-09-17T07:13:43.178Z,5.80
2022-09-17T07:14:42.127Z,8.80
2022-09-17T07:15:42.191Z,9.30
2022-09-17T07:16:42.066Z,6.50
2022-09-17T07:17:42.057Z,7.20
2022-09-17T07:18:42.045Z,7.10
2022-09-17T07:19:42.047Z,11.40
2022-09-17T07:20:42.095Z,7.30
2022-09-17T07:21:42.007Z,7.00
2022-09-17T07:22:42.007Z,9.70
2022-09-17T07:23:41.987Z,7.40
2022-09-17T07:24:42.176Z,7.50
2022-09-17T07:25:41.966Z,7.40
2022-09-17T07:26:41.958Z,9.00
2022-09-17T07:27:41.967Z,7.30
2022-09-17T07:28:41.968Z,7.10
2022-09-17T07:29:41.957Z,8.30
2022-09-17T07:30:41.968Z,7.50
2022-09-17T07:31:41.964Z,6.40
2022-09-17T07:32:41.891Z,8.20
2022-09-17T07:33:41.903Z,12.70
2022-09-17T07:34:41.919Z,9.00
2022-09-17T07:35:41.887Z,8.30
2022-09-17T07:36:41.853Z,8.60
2022-09-17T07:37:41.838Z,11.40
2022-09-17T07:38:41.858Z,10.50
2022-09-17T07:39:41.844Z,7.30
2022-09-17T07:40:41.805Z,8.60
2022-09-17T07:41:41.815Z,9.90
2022-09-17T07:42:41.866Z,8.60
2022-09-17T07:43:41.767Z,10.90
2022-09-17T07:44:41.785Z,9.40
2022-09-17T07:45:41.775Z,10.50
2022-09-17T07:46:41.802Z,9.20
2022-09-17T07:47:41.747Z,10.30
2022-09-17T07:48:41.722Z,7.00
2022-09-17T07:49:41.744Z,11.30
2022-09-17T07:50:41.705Z,9.00
2022-09-17T07:51:41.685Z,6.70
2022-09-17T07:52:41.785Z,10.50
2022-09-17T07:53:41.667Z,10.30
2022-09-17T07:54:41.655Z,11.10
2022-09-17T07:55:41.652Z,9.90
2022-09-17T07:56:41.637Z,9.00
2022-09-17T07:57:41.715Z,7.90
2022-09-17T07:58:41.625Z,8.70
2022-09-17T07:59:41.604Z,8.60
2022-09-17T08:00:41.614Z,11.10
2022-09-17T08:01:41.627Z,11.30
2022-09-17T08:02:41.666Z,11.30
2022-09-17T08:03:41.584Z,8.20
2022-09-17T08:04:41.575Z,9.50
2022-09-17T08:05:41.534Z,10.80
2022-09-17T08:06:41.543Z,10.30
2022-09-17T08:07:41.522Z,8.20
2022-09-17T08:08:41.534Z,11.00
2022-09-17T08:09:41.484Z,8.70
2022-09-17T08:10:41.482Z,7.50
2022-09-17T08:11:57.059Z,9.30
2022-09-17T08:12:42.463Z,8.00
2022-09-17T08:13:41.444Z,8.00
2022-09-17T08:14:41.448Z,7.40
2022-09-17T08:15:41.614Z,12.60
2022-09-17T08:16:41.423Z,7.30
2022-09-17T08:17:41.401Z,6.80
2022-09-17T08:18:41.393Z,9.10
2022-09-17T08:19:41.382Z,4.80
2022-09-17T08:20:41.604Z,4.70
2022-09-17T08:21:41.406Z,8.10
2022-09-17T08:22:41.371Z,8.20
2022-09-17T08:23:41.342Z,5.70
2022-09-17T08:24:41.332Z,4.80
2022-09-17T08:25:41.313Z,8.50
2022-09-17T08:26:41.312Z,6.50
2022-09-17T08:27:41.345Z,6.80
2022-09-17T08:28:41.293Z,7.00
2022-09-17T08:29:41.279Z,5.80
2022-09-17T08:30:41.264Z,5.00
2022-09-17T08:31:41.298Z,7.40
2022-09-17T08:32:41.260Z,4.70
2022-09-17T08:33:41.265Z,9.70
2022-09-17T08:34:41.275Z,7.00
2022-09-17T08:35:41.222Z,9.40
2022-09-17T08:36:41.213Z,7.20
2022-09-17T08:37:41.182Z,7.90
2022-09-17T08:38:41.181Z,6.70
2022-09-17T08:39:41.193Z,6.20
2022-09-17T08:40:41.169Z,4.70
2022-09-17T08:41:41.142Z,6.50
2022-09-17T08:42:41.133Z,5.20
2022-09-17T08:43:41.121Z,5.60
2022-09-17T08:44:41.129Z,6.00
2022-09-17T08:45:41.145Z,7.00
2022-09-17T08:46:41.136Z,8.60
2022-09-17T08:47:41.082Z,6.90
2022-09-17T08:48:41.073Z,5.80
2022-09-17T08:49:41.084Z,7.50
2022-09-17T08:50:41.061Z,8.30
2022-09-17T08:51:41.042Z,3.60
2022-09-17T08:52:41.054Z,6.70
2022-09-17T08:53:41.024Z,5.00
2022-09-17T08:54:41.001Z,8.20
2022-09-17T08:55:41.042Z,6.70
2022-09-17T08:56:40.981Z,8.50
2022-09-17T08:57:40.981Z,5.10
2022-09-17T08:58:40.961Z,6.70
2022-09-17T08:59:40.962Z,5.60
2022-09-17T09:00:40.939Z,7.40
2022-09-17T09:01:41.112Z,9.30
2022-09-17T09:02:41.051Z,9.20
2022-09-17T09:03:41.011Z,7.40
2022-09-17T09:04:40.902Z,7.80
2022-09-17T09:05:40.893Z,7.20
2022-09-17T09:06:40.872Z,8.30
2022-09-17T09:07:40.953Z,9.00
2022-09-17T09:08:40.855Z,9.10
2022-09-17T09:09:42.822Z,4.70
2022-09-17T09:10:40.842Z,9.30
2022-09-17T09:11:40.822Z,7.60
2022-09-17T09:12:40.842Z,7.90
2022-09-17T09:13:40.842Z,7.50
2022-09-17T09:14:40.899Z,5.80
2022-09-17T09:15:40.791Z,8.30
2022-09-17T09:16:40.792Z,9.00
2022-09-17T09:17:40.764Z,5.00
2022-09-17T09:18:40.743Z,5.10
2022-09-17T09:19:40.772Z,7.40
2022-09-17T09:20:40.729Z,5.30
2022-09-17T09:21:40.782Z,7.90
2022-09-17T09:22:40.703Z,4.40
2022-09-17T09:23:40.691Z,2.80
2022-09-17T09:24:40.681Z,4.00
2022-09-17T09:25:40.711Z,5.90
2022-09-17T09:26:40.660Z,4.80
2022-09-17T09:27:40.668Z,6.30
2022-09-17T09:28:40.640Z,4.10
2022-09-17T09:29:40.632Z,4.80
2022-09-17T09:30:40.622Z,4.60
2022-09-17T09:31:40.770Z,5.20
2022-09-17T09:32:40.641Z,6.20
2022-09-17T09:33:44.401Z,6.10
2022-09-17T09:34:41.571Z,8.20
2022-09-17T09:35:40.570Z,9.10
2022-09-17T09:36:40.591Z,5.50
2022-09-17T09:37:40.550Z,1.80
2022-09-17T09:38:40.546Z,7.00
2022-09-17T09:39:45.745Z,3.60
2022-09-17T09:40:41.520Z,4.30
2022-09-17T09:41:40.509Z,5.00
2022-09-17T09:42:40.521Z,3.90
2022-09-17T09:44:02.280Z,5.00
2022-09-17T09:44:41.472Z,3.40
2022-09-17T09:45:40.468Z,4.30
2022-09-17T09:46:40.485Z,4.50
2022-09-17T09:47:40.441Z,3.40
2022-09-17T09:48:40.430Z,3.80
2022-09-17T09:49:40.440Z,5.80
2022-09-17T09:51:04.497Z,5.60
2022-09-17T09:51:41.472Z,4.10
2022-09-17T09:52:40.412Z,4.00
2022-09-17T09:53:40.392Z,3.30
2022-09-17T09:54:40.372Z,3.90
2022-09-17T09:55:40.402Z,2.50
2022-09-17T09:56:40.341Z,2.70
2022-09-17T09:57:40.361Z,5.20
2022-09-17T09:58:45.021Z,2.30
2022-09-17T09:59:52.069Z,6.10
2022-09-17T10:00:45.341Z,5.00
2022-09-17T10:01:50.435Z,5.40
2022-09-17T10:02:40.347Z,3.10
2022-09-17T10:03:40.300Z,5.10
2022-09-17T10:04:40.261Z,4.00
2022-09-17T10:05:40.250Z,3.90
2022-09-17T10:06:40.230Z,2.00
2022-09-17T10:07:40.227Z,3.90
2022-09-17T10:08:41.030Z,3.10
2022-09-17T10:09:40.208Z,6.00
2022-09-17T10:10:40.192Z,4.40
2022-09-17T10:11:40.215Z,3.30
2022-09-17T10:12:40.169Z,2.60
2022-09-17T10:13:40.184Z,5.20
2022-09-17T10:14:40.143Z,4.60
2022-09-17T10:15:40.144Z,2.40
2022-09-17T10:16:40.209Z,2.40
2022-09-17T10:17:40.121Z,5.90
2022-09-17T10:18:40.100Z,4.50
2022-09-17T10:19:40.101Z,7.60
2022-09-17T10:20:40.081Z,9.20
2022-09-17T10:21:40.079Z,2.50
2022-09-17T10:22:40.121Z,3.20
2022-09-17T10:23:40.061Z,3.80
2022-09-17T10:24:40.050Z,4.10
2022-09-17T10:25:40.041Z,2.70
2022-09-17T10:26:40.024Z,3.90
2022-09-17T10:27:40.010Z,2.60
2022-09-17T10:28:40.038Z,3.00
2022-09-17T10:29:40.020Z,6.30
2022-09-17T10:30:39.981Z,2.10
2022-09-17T10:31:40.078Z,4.00
2022-09-17T10:32:39.960Z,5.60
2022-09-17T10:33:39.966Z,4.10
2022-09-17T10:34:40.007Z,3.60
2022-09-17T10:35:39.921Z,3.80
2022-09-17T10:36:39.917Z,2.30
2022-09-17T10:37:39.901Z,4.30
2022-09-17T10:38:39.891Z,3.60
2022-09-17T10:39:39.924Z,3.80
2022-09-17T10:40:39.947Z,3.00
2022-09-17T10:41:39.870Z,3.00
2022-09-17T10:42:39.846Z,3.70
2022-09-17T10:43:39.830Z,3.40
2022-09-17T10:44:39.820Z,3.80
2022-09-17T10:45:39.842Z,2.70
2022-09-17T10:46:39.813Z,3.20
2022-09-17T10:47:39.791Z,4.00
2022-09-17T10:48:39.779Z,4.60
2022-09-17T10:49:39.769Z,4.70
2022-09-17T10:50:39.757Z,4.00
2022-09-17T10:51:39.799Z,4.10
2022-09-17T10:52:39.749Z,2.10
2022-09-17T10:53:39.729Z,1.90
2022-09-17T10:54:39.731Z,2.20
2022-09-17T10:55:39.700Z,2.20
2022-09-17T10:56:46.737Z,3.20
2022-09-17T10:57:39.689Z,6.50
2022-09-17T10:58:42.372Z,1.10
2022-09-17T10:59:39.664Z,3.00
2022-09-17T11:00:39.679Z,2.20
2022-09-17T11:01:39.731Z,1.40
2022-09-17T11:02:39.823Z,3.30
2022-09-17T11:03:39.628Z,2.90
2022-09-17T11:04:39.616Z,1.00
2022-09-17T11:05:39.608Z,3.70
2022-09-17T11:06:39.588Z,2.70
2022-09-17T11:07:39.578Z,4.40
2022-09-17T11:08:39.616Z,1.70
2022-09-17T11:09:39.565Z,2.80
2022-09-17T11:10:39.546Z,2.60
2022-09-17T11:11:39.538Z,3.20
2022-09-17T11:12:39.528Z,3.30
2022-09-17T11:13:39.517Z,4.90
2022-09-17T11:14:39.548Z,1.50
2022-09-17T11:15:39.489Z,3.00
2022-09-17T11:16:39.520Z,2.20
2022-09-17T11:17:39.477Z,2.50
2022-09-17T11:18:39.459Z,1.20
2022-09-17T11:19:39.700Z,3.80
2022-09-17T11:20:39.440Z,1.90
2022-09-17T11:21:39.459Z,3.00
2022-09-17T11:22:39.416Z,2.40
2022-09-17T11:23:39.409Z,2.60
2022-09-17T11:24:39.418Z,4.50
2022-09-17T11:25:39.419Z,3.20
2022-09-17T11:26:39.458Z,2.70
2022-09-17T11:27:39.369Z,3.30
2022-09-17T11:28:39.377Z,1.80
2022-09-17T11:29:39.357Z,3.30
2022-09-17T11:30:39.329Z,1.90
2022-09-17T11:31:39.375Z,3.60
2022-09-17T11:32:39.310Z,4.50
2022-09-17T11:33:39.330Z,2.90
2022-09-17T11:34:39.318Z,2.80
2022-09-17T11:35:39.289Z,4.80
2022-09-17T11:36:39.258Z,3.70
2022-09-17T11:37:39.279Z,2.40
2022-09-17T11:38:39.245Z,2.40
2022-09-17T11:39:39.240Z,2.30
2022-09-17T11:40:39.316Z,2.70
2022-09-17T11:41:39.217Z,4.20
2022-09-17T11:42:39.237Z,2.30
2022-09-17T11:43:39.199Z,3.40
2022-09-17T11:44:39.188Z,2.80
2022-09-17T11:45:39.179Z,2.00
2022-09-17T11:46:39.245Z,2.10
2022-09-17T11:47:39.147Z,1.70
2022-09-17T11:48:39.138Z,3.80
2022-09-17T11:49:39.137Z,2.00
2022-09-17T11:50:39.189Z,2.90
2022-09-17T11:51:39.108Z,2.80
2022-09-17T11:52:39.096Z,1.80
2022-09-17T11:53:39.077Z,2.80
2022-09-17T11:54:39.079Z,1.40
2022-09-17T11:55:39.067Z,1.60
2022-09-17T11:56:39.107Z,2.80
2022-09-17T11:57:39.047Z,2.70
2022-09-17T11:58:39.071Z,2.70
2022-09-17T11:59:39.026Z,3.70
2022-09-17T12:00:39.018Z,4.10
2022-09-17T12:01:39.079Z,1.60
2022-09-17T12:02:39.048Z,7.50
2022-09-17T12:03:39.026Z,2.50
2022-09-17T12:04:38.987Z,3.80
2022-09-17T12:05:38.960Z,4.50
2022-09-17T12:06:38.939Z,2.40
2022-09-17T12:07:38.938Z,3.40
2022-09-17T12:08:39.148Z,4.20
2022-09-17T12:09:38.914Z,3.80
2022-09-17T12:10:38.990Z,3.20
2022-09-17T12:11:38.897Z,5.00
2022-09-17T12:12:49.671Z,3.90
2022-09-17T12:13:39.877Z,4.40
2022-09-17T12:14:38.865Z,3.10
2022-09-17T12:15:39.371Z,3.30
2022-09-17T12:16:38.857Z,3.70
2022-09-17T12:17:38.933Z,3.40
2022-09-17T12:18:38.810Z,3.20
2022-09-17T12:19:38.827Z,2.80
2022-09-17T12:20:38.936Z,3.50
2022-09-17T12:21:38.818Z,4.00
2022-09-17T12:22:40.489Z,3.50
2022-09-17T12:23:38.926Z,1.30
2022-09-17T12:24:39.148Z,4.30
2022-09-17T12:25:38.767Z,3.50
2022-09-17T12:26:38.727Z,3.80
2022-09-17T12:27:38.746Z,3.40
2022-09-17T12:28:38.733Z,3.70
2022-09-17T12:29:38.706Z,3.10
2022-09-17T12:30:38.687Z,3.80
2022-09-17T12:31:38.717Z,3.50
2022-09-17T12:32:40.866Z,3.80
2022-09-17T12:33:38.666Z,3.20
2022-09-17T12:34:38.653Z,4.60
2022-09-17T12:36:02.914Z,3.50
2022-09-17T12:36:39.659Z,4.80
2022-09-17T12:37:38.606Z,3.20
2022-09-17T12:38:38.627Z,3.50
2022-09-17T12:39:38.624Z,2.00
2022-09-17T12:40:38.758Z,2.80
2022-09-17T12:41:38.566Z,1.80
2022-09-17T12:42:38.557Z,4.90
2022-09-17T12:43:38.556Z,1.60
2022-09-17T12:44:38.528Z,2.50
2022-09-17T12:45:38.525Z,3.40
2022-09-17T12:46:38.593Z,3.20
2022-09-17T12:47:38.517Z,4.60
2022-09-17T12:48:38.496Z,3.50
2022-09-17T12:49:39.507Z,2.60
2022-09-17T12:50:38.585Z,2.70
2022-09-17T12:51:38.467Z,3.40
2022-09-17T12:52:38.446Z,1.00
2022-09-17T12:53:38.446Z,2.00
2022-09-17T12:54:43.089Z,4.30
2022-09-17T12:55:39.472Z,8.70
2022-09-17T12:56:38.490Z,5.60
2022-09-17T12:57:38.398Z,7.30
2022-09-17T12:58:38.386Z,4.70
2022-09-17T12:59:38.384Z,3.30
2022-09-17T13:00:38.382Z,4.10
2022-09-17T13:01:38.425Z,4.00
2022-09-17T13:02:38.336Z,4.70
2022-09-17T13:03:38.334Z,3.30
2022-09-17T13:04:59.477Z,4.60
2022-09-17T13:05:39.315Z,5.50
2022-09-17T13:06:38.324Z,5.50
2022-09-17T13:07:38.284Z,4.20
2022-09-17T13:08:38.277Z,4.20
2022-09-17T13:09:38.265Z,4.60
2022-09-17T13:10:38.274Z,4.30
2022-09-17T13:11:38.264Z,5.00
2022-09-17T13:12:38.241Z,3.10
2022-09-17T13:13:38.231Z,2.90
2022-09-17T13:14:38.233Z,6.00
2022-09-17T13:15:38.285Z,4.40
2022-09-17T13:16:38.277Z,4.90
2022-09-17T13:17:38.200Z,2.50
2022-09-17T13:18:41.418Z,2.90
2022-09-17T13:19:38.184Z,3.30
2022-09-17T13:20:38.154Z,3.10